KANB/ANB METAR and TAF weather

Enter ICAO airport designator
Station Type Date Time Source
KANB METAR 2020/09/25 05:53 UTC NOAA

KANB 250553Z AUTO 24003KT 10SM BKN011 OVC019 21/19 A2988 RMK AO2 SLP113 60045 T02110194 10233 20211 402330167 51005


Station Type Date Time Source
KANB Decoded METAR 2020/09/25 05:53 UTC NOAA

ANNISTON METRO AIRPORT, AL, United States (KANB) 33-35N 085-51W 183M
Sep 25, 2020 - 01:53 AM EDT / 2020.09.25 0553 UTC
Wind: from the WSW (240 degrees) at 3 MPH (3 KT):0
Visibility: 10 mile(s):0
Sky conditions: overcast
Temperature: 70.0 F (21.1 C)
Dew Point: 66.9 F (19.4 C)
Relative Humidity: 90%
Pressure (altimeter): 29.88 in. Hg (1011 hPa)
Pressure tendency: 0.01 inches (0.5 hPa) higher than three hours ago
ob: KANB 250553Z AUTO 24003KT 10SM BKN011 OVC019 21/19 A2988 RMK AO2 SLP113 60045 T02110194 10233 20211 402330167 51005
cycle: 6

Station Type Date Time Source
KANB TAF 2020/09/25 06:42 UTC NOAA

TAF KANB 250540Z 2506/2606 VRB04KT 6SM BR VCSH SCT006 BKN015
TEMPO 2508/2509 BKN007 OVC015
FM250900 VRB03KT 3SM BR VCSH OVC007
FM251500 22005KT P6SM OVC007
FM251800 23005KT P6SM OVC015
FM252000 25006KT P6SM BKN025
FM260000 VRB03KT P6SM SCT025 BKN040

Example: see airport list